Time;durP1;ratioP1;P1;durP2;ratioP2;P2;SDS_P1;SDS_P2;PMS_P1;PMS_P2;Temp;Humidity;BMP_temperature;BMP_pressure;BME280_temperature;BME280_humidity;BME280_pressure;Samples;Min_cycle;Max_cycle;Signal;HPM_P1;HPM_P2
2023/02/22 00:01:34;;;;;;;;;;;;;;;6.05;75.82;100348.20;106305;1278;22515;-58
2023/02/22 00:04:04;;;;;;;;;;;;;;;6.03;75.89;100348.88;106437;1275;22510;-58
2023/02/22 00:06:33;;;;;;;;;;;;;;;6.02;75.90;100349.34;106287;1264;25439;-56
2023/02/22 00:09:03;;;;;;;;;;;;;;;5.99;75.98;100349.80;106373;1271;24395;-55
2023/02/22 00:11:34;;;;;;;;;;;;;;;5.97;76.09;100352.41;106428;1278;23023;-57
2023/02/22 00:14:03;;;;;;;;;;;;;;;5.94;76.12;100348.95;106309;1271;22510;-54
2023/02/22 00:16:33;;;;;;;;;;;;;;;5.91;76.18;100346.20;106326;1278;22570;-54
2023/02/22 00:19:02;;;;;;;;;;;;;;;5.87;76.25;100354.39;106350;1271;24226;-57
2023/02/22 00:21:31;;;;;;;;;;;;;;;5.84;76.27;100353.69;106308;1271;22505;-57
2023/02/22 00:24:15;;;;;;;;;;;;;;;5.82;76.38;100356.52;106345;1275;24263;-57
2023/02/22 00:26:45;;;;;;;;;;;;;;;5.78;76.36;100361.52;106412;1274;22530;-58
2023/02/22 00:29:15;;;;;;;;;;;;;;;5.74;76.24;100359.27;106404;1271;25505;-57
2023/02/22 00:31:44;;;;;;;;;;;;;;;5.70;76.41;100360.59;106328;1278;22652;-54
2023/02/22 00:34:15;;;;;;;;;;;;;;;5.64;76.28;100358.80;106330;1278;22571;-54
2023/02/22 00:36:47;;;;;;;;;;;;;;;5.58;76.43;100362.73;106529;1278;22527;-54
2023/02/22 00:39:16;;;;;;;;;;;;;;;5.52;76.45;100359.73;106253;1272;25319;-55
2023/02/22 00:41:45;;;;;;;;;;;;;;;5.47;76.44;100359.23;106379;1272;22637;-57
2023/02/22 00:44:15;;;;;;;;;;;;;;;5.43;76.48;100363.70;106251;1278;24283;-56
2023/02/22 00:46:45;;;;;;;;;;;;;;;5.40;76.47;100364.27;106513;1274;24557;-54
2023/02/22 00:49:14;;;;;;;;;;;;;;;5.39;76.42;100365.33;106324;1278;24421;-54
2023/02/22 00:51:43;;;;;;;;;;;;;;;5.37;76.30;100368.89;106326;1271;24271;-55
2023/02/22 00:54:13;;;;;;;;;;;;;;;5.35;76.27;100372.05;106249;1278;22592;-57
2023/02/22 00:56:42;;;;;;;;;;;;;;;5.33;76.22;100372.96;106311;1278;24386;-57
2023/02/22 00:59:11;;;;;;;;;;;;;;;5.28;76.08;100370.34;106244;1265;25276;-54
2023/02/22 01:01:41;;;;;;;;;;;;;;;5.24;76.13;100371.15;106231;1278;25224;-57
2023/02/22 01:04:10;;;;;;;;;;;;;;;5.21;75.94;100373.08;106388;1274;22519;-56
2023/02/22 01:06:40;;;;;;;;;;;;;;;5.16;75.85;100375.13;106274;1271;22507;-57
2023/02/22 01:09:09;;;;;;;;;;;;;;;5.11;75.90;100376.91;106421;1272;24276;-55
2023/02/22 01:11:38;;;;;;;;;;;;;;;5.07;75.96;100379.11;106303;1278;22507;-56
2023/02/22 01:14:08;;;;;;;;;;;;;;;5.03;75.99;100381.48;106216;1274;22624;-58
2023/02/22 01:16:37;;;;;;;;;;;;;;;5.00;76.08;100379.61;106328;1278;24329;-56
2023/02/22 01:19:07;;;;;;;;;;;;;;;4.98;76.16;100382.74;106302;1278;26473;-55
2023/02/22 01:21:36;;;;;;;;;;;;;;;4.96;76.22;100380.66;106234;1271;22510;-54
2023/02/22 01:24:05;;;;;;;;;;;;;;;4.93;76.33;100379.15;106237;1272;22561;-56
2023/02/22 01:26:35;;;;;;;;;;;;;;;4.92;76.45;100379.73;106352;1278;22517;-56
2023/02/22 01:29:04;;;;;;;;;;;;;;;4.91;76.51;100379.38;106409;1278;23132;-54
2023/02/22 01:31:33;;;;;;;;;;;;;;;4.90;76.61;100374.57;106219;1271;22635;-58
2023/02/22 01:34:02;;;;;;;;;;;;;;;4.90;76.68;100379.15;106234;1267;22512;-55
2023/02/22 01:36:31;;;;;;;;;;;;;;;4.89;76.75;100378.40;106398;1264;24249;-57
2023/02/22 01:39:01;;;;;;;;;;;;;;;4.87;76.94;100380.67;106247;1278;24389;-57
2023/02/22 01:41:30;;;;;;;;;;;;;;;4.85;77.09;100378.42;106305;1274;22634;-57
2023/02/22 01:44:13;;;;;;;;;;;;;;;4.83;77.15;100378.33;106221;1278;24269;-56
2023/02/22 01:46:42;;;;;;;;;;;;;;;4.81;77.35;100378.86;106314;1272;22579;-56
2023/02/22 01:49:13;;;;;;;;;;;;;;;4.79;77.38;100377.27;106238;1272;25292;-56
2023/02/22 01:51:44;;;;;;;;;;;;;;;4.76;77.53;100372.97;106244;1265;24284;-56
2023/02/22 01:54:16;;;;;;;;;;;;;;;4.75;77.57;100369.21;106311;1264;25346;-56
2023/02/22 01:56:50;;;;;;;;;;;;;;;4.75;77.68;100371.52;106254;1278;22517;-54
2023/02/22 01:59:20;;;;;;;;;;;;;;;4.73;77.80;100370.45;106421;1265;24282;-57
2023/02/22 02:01:50;;;;;;;;;;;;;;;4.71;77.91;100369.73;106359;1278;24390;-58
2023/02/22 02:04:24;;;;;;;;;;;;;;;4.69;78.12;100368.44;106234;1271;22511;-55
2023/02/22 02:06:54;;;;;;;;;;;;;;;4.67;78.15;100364.45;106325;1278;24284;-54
2023/02/22 02:09:29;;;;;;;;;;;;;;;4.66;78.19;100366.23;106384;1271;22515;-55
2023/02/22 02:12:01;;;;;;;;;;;;;;;4.63;78.27;100366.33;106291;1268;24401;-58
2023/02/22 02:14:32;;;;;;;;;;;;;;;4.59;78.22;100369.27;106335;1272;22565;-57
2023/02/22 02:17:01;;;;;;;;;;;;;;;4.56;78.29;100368.29;106380;1278;22518;-55
2023/02/22 02:19:41;;;;;;;;;;;;;;;4.55;78.33;100366.31;106302;1278;22536;-59
2023/02/22 02:22:28;;;;;;;;;;;;;;;4.52;78.31;100369.60;106283;1272;22505;-56
2023/02/22 02:25:10;;;;;;;;;;;;;;;4.49;78.36;100369.77;106203;1264;25354;-56
2023/02/22 02:27:52;;;;;;;;;;;;;;;4.46;78.35;100371.19;106486;1267;25563;-57
2023/02/22 02:30:47;;;;;;;;;;;;;;;4.42;78.77;100367.10;106415;1272;24271;-57
2023/02/22 02:33:19;;;;;;;;;;;;;;;4.42;78.90;100368.05;106325;1274;25633;-56
2023/02/22 02:35:54;;;;;;;;;;;;;;;4.41;79.05;100367.20;106240;1272;24385;-58
2023/02/22 02:38:29;;;;;;;;;;;;;;;4.40;79.25;100365.73;106263;1271;25328;-57
2023/02/22 02:41:03;;;;;;;;;;;;;;;4.42;79.27;100365.61;106350;1278;22533;-55
2023/02/22 02:43:36;;;;;;;;;;;;;;;4.43;79.58;100366.38;106331;1268;22511;-54
2023/02/22 02:46:07;;;;;;;;;;;;;;;4.42;79.91;100367.02;106321;1278;22517;-58
2023/02/22 02:48:39;;;;;;;;;;;;;;;4.42;79.93;100365.14;106201;1272;22574;-56
2023/02/22 02:51:13;;;;;;;;;;;;;;;4.42;80.10;100367.02;106234;1278;24249;-56
2023/02/22 02:53:44;;;;;;;;;;;;;;;4.41;80.15;100364.92;106238;1274;24356;-57
2023/02/22 02:56:14;;;;;;;;;;;;;;;4.39;80.32;100364.89;106302;1272;24392;-59
2023/02/22 02:58:47;;;;;;;;;;;;;;;4.39;80.44;100358.48;106352;1278;23167;-57
2023/02/22 03:01:20;;;;;;;;;;;;;;;4.38;80.53;100359.79;106302;1278;22513;-54
2023/02/22 03:04:01;;;;;;;;;;;;;;;4.38;80.64;100363.26;106295;1278;22507;-57
2023/02/22 03:06:39;;;;;;;;;;;;;;;4.37;80.69;100366.99;106318;1271;25647;-56
2023/02/22 03:09:13;;;;;;;;;;;;;;;4.36;80.72;100372.48;106278;1274;24716;-56
2023/02/22 03:11:49;;;;;;;;;;;;;;;4.35;80.93;100368.31;106274;1264;24207;-57
2023/02/22 03:14:22;;;;;;;;;;;;;;;4.34;81.05;100366.04;106271;1278;22498;-57
2023/02/22 03:16:56;;;;;;;;;;;;;;;4.34;81.21;100366.29;106392;1278;25354;-54
2023/02/22 03:19:27;;;;;;;;;;;;;;;4.33;81.41;100367.64;106280;1272;25575;-54
2023/02/22 03:22:02;;;;;;;;;;;;;;;4.34;81.66;100368.91;106356;1271;22519;-58
2023/02/22 03:24:33;;;;;;;;;;;;;;;4.32;81.69;100366.02;106267;1265;22510;-55
2023/02/22 03:27:08;;;;;;;;;;;;;;;4.32;81.79;100374.54;106209;1278;25449;-56
2023/02/22 03:29:39;;;;;;;;;;;;;;;4.32;81.87;100369.96;106408;1278;22528;-57
2023/02/22 03:32:10;;;;;;;;;;;;;;;4.33;81.85;100364.02;106299;1272;22505;-57
2023/02/22 03:34:41;;;;;;;;;;;;;;;4.36;81.80;100366.80;106243;1278;22514;-56
2023/02/22 03:37:14;;;;;;;;;;;;;;;4.37;81.97;100368.81;106395;1278;22524;-56
2023/02/22 03:39:45;;;;;;;;;;;;;;;4.36;82.15;100369.94;106333;1275;23032;-55
2023/02/22 03:42:17;;;;;;;;;;;;;;;4.34;82.33;100370.14;106224;1278;24217;-56
2023/02/22 03:44:47;;;;;;;;;;;;;;;4.33;82.25;100369.94;106237;1272;22514;-55
2023/02/22 03:47:18;;;;;;;;;;;;;;;4.34;82.48;100369.21;106265;1265;24193;-54
2023/02/22 03:49:51;;;;;;;;;;;;;;;4.35;82.66;100375.26;106309;1278;24339;-57
2023/02/22 03:52:22;;;;;;;;;;;;;;;4.35;82.72;100378.58;106309;1265;24415;-55
2023/02/22 03:54:52;;;;;;;;;;;;;;;4.36;82.64;100377.61;106267;1265;26618;-56
2023/02/22 03:57:25;;;;;;;;;;;;;;;4.37;82.65;100377.34;106304;1274;24367;-56
2023/02/22 03:59:55;;;;;;;;;;;;;;;4.38;82.87;100384.02;106200;1271;22544;-57
2023/02/22 04:02:24;;;;;;;;;;;;;;;4.38;82.77;100381.65;106214;1265;24257;-54
2023/02/22 04:04:53;;;;;;;;;;;;;;;4.39;82.79;100383.76;106340;1277;25836;-55
2023/02/22 04:07:23;;;;;;;;;;;;;;;4.40;82.74;100389.42;106272;1274;22507;-56
2023/02/22 04:09:52;;;;;;;;;;;;;;;4.41;82.78;100394.46;106212;1275;22510;-55
2023/02/22 04:12:21;;;;;;;;;;;;;;;4.40;82.91;100392.90;106271;1271;22511;-57
2023/02/22 04:14:51;;;;;;;;;;;;;;;4.37;83.03;100387.38;106298;1263;26525;-55
2023/02/22 04:17:20;;;;;;;;;;;;;;;4.36;82.96;100393.73;106372;1271;24247;-56
2023/02/22 04:19:50;;;;;;;;;;;;;;;4.36;83.06;100394.12;106230;1278;24206;-55
2023/02/22 04:22:19;;;;;;;;;;;;;;;4.36;83.19;100393.25;106390;1278;24274;-56
2023/02/22 04:24:49;;;;;;;;;;;;;;;4.36;83.20;100391.83;106206;1274;22528;-57
2023/02/22 04:27:18;;;;;;;;;;;;;;;4.32;83.32;100390.98;106315;1271;22560;-55
2023/02/22 04:29:47;;;;;;;;;;;;;;;4.32;83.18;100384.09;106374;1278;25643;-58
2023/02/22 04:32:16;;;;;;;;;;;;;;;4.33;83.22;100383.43;106418;1263;25384;-54
2023/02/22 04:34:45;;;;;;;;;;;;;;;4.31;83.18;100387.94;106262;1278;24113;-57
2023/02/22 04:37:15;;;;;;;;;;;;;;;4.30;82.98;100384.72;106198;1278;22518;-55
2023/02/22 04:39:44;;;;;;;;;;;;;;;4.29;82.88;100390.51;106301;1271;24224;-55
2023/02/22 04:42:13;;;;;;;;;;;;;;;4.27;82.68;100388.59;106175;1278;22985;-54
2023/02/22 04:44:43;;;;;;;;;;;;;;;4.23;82.56;100388.90;106182;1272;22547;-56
2023/02/22 04:47:12;;;;;;;;;;;;;;;4.17;82.49;100389.30;106198;1271;25361;-56
2023/02/22 04:49:42;;;;;;;;;;;;;;;4.12;82.53;100382.70;106224;1278;24211;-56
2023/02/22 04:52:11;;;;;;;;;;;;;;;4.07;82.67;100383.85;106212;1278;22527;-53
2023/02/22 04:54:40;;;;;;;;;;;;;;;3.99;82.61;100385.13;106198;1271;22505;-58
2023/02/22 04:57:10;;;;;;;;;;;;;;;3.96;82.62;100383.34;106260;1278;24308;-57
2023/02/22 04:59:39;;;;;;;;;;;;;;;3.93;82.63;100380.40;106357;1274;23085;-55
2023/02/22 05:02:08;;;;;;;;;;;;;;;3.92;82.52;100380.11;106276;1278;25600;-55
2023/02/22 05:04:38;;;;;;;;;;;;;;;3.87;82.40;100380.21;106261;1278;22518;-56
2023/02/22 05:07:08;;;;;;;;;;;;;;;3.82;82.54;100376.86;106279;1278;23171;-55
2023/02/22 05:09:37;;;;;;;;;;;;;;;3.79;82.55;100374.52;106138;1271;22514;-58
2023/02/22 05:12:06;;;;;;;;;;;;;;;3.75;82.51;100377.83;106263;1274;22638;-54
2023/02/22 05:14:35;;;;;;;;;;;;;;;3.73;82.40;100375.20;106335;1278;22512;-56
2023/02/22 05:17:05;;;;;;;;;;;;;;;3.70;82.42;100377.54;106200;1272;22519;-56
2023/02/22 05:19:34;;;;;;;;;;;;;;;3.67;82.40;100377.20;106203;1278;22537;-57
2023/02/22 05:22:04;;;;;;;;;;;;;;;3.62;82.68;100378.10;106164;1274;24249;-57
2023/02/22 05:24:33;;;;;;;;;;;;;;;3.59;82.52;100383.23;106265;1263;24388;-57
2023/02/22 05:27:03;;;;;;;;;;;;;;;3.56;82.54;100379.28;106112;1275;24227;-57
2023/02/22 05:29:32;;;;;;;;;;;;;;;3.55;82.36;100379.95;106115;1271;22532;-56
2023/02/22 05:32:02;;;;;;;;;;;;;;;3.54;82.29;100381.52;106319;1278;22791;-56
2023/02/22 05:34:31;;;;;;;;;;;;;;;3.53;82.33;100379.19;106198;1272;22512;-61
2023/02/22 05:37:02;;;;;;;;;;;;;;;3.52;82.26;100375.41;106516;1278;24260;-60
2023/02/22 05:39:31;;;;;;;;;;;;;;;3.51;82.18;100377.04;106224;1278;24392;-57
2023/02/22 05:42:00;;;;;;;;;;;;;;;3.48;82.17;100380.87;106298;1278;23057;-57
2023/02/22 05:44:30;;;;;;;;;;;;;;;3.46;82.22;100379.20;106232;1271;22589;-57
2023/02/22 05:46:59;;;;;;;;;;;;;;;3.44;82.19;100379.55;106227;1278;25584;-58
2023/02/22 05:49:28;;;;;;;;;;;;;;;3.43;82.11;100384.07;106168;1278;22530;-57
2023/02/22 05:51:58;;;;;;;;;;;;;;;3.37;82.15;100386.48;106249;1278;23163;-58
2023/02/22 05:54:27;;;;;;;;;;;;;;;3.33;82.15;100383.81;106184;1268;22510;-58
2023/02/22 05:56:57;;;;;;;;;;;;;;;3.32;82.13;100385.33;107717;1270;24295;-57
2023/02/22 05:59:28;;;;;;;;;;;;;;;3.31;82.14;100386.05;106328;1274;24391;-58
2023/02/22 06:01:57;;;;;;;;;;;;;;;3.27;82.08;100388.17;106607;1274;22549;-53
2023/02/22 06:04:26;;;;;;;;;;;;;;;3.23;82.25;100392.04;106485;1278;22508;-54
2023/02/22 06:06:55;;;;;;;;;;;;;;;3.21;82.29;100397.52;106500;1278;25515;-57
2023/02/22 06:09:25;;;;;;;;;;;;;;;3.19;82.32;100396.48;106234;1274;23031;-57
2023/02/22 06:11:54;;;;;;;;;;;;;;;3.17;82.43;100403.29;106256;1271;23155;-55
2023/02/22 06:14:24;;;;;;;;;;;;;;;3.15;82.46;100409.95;106362;1278;24380;-55
2023/02/22 06:16:54;;;;;;;;;;;;;;;3.12;82.64;100410.63;106346;1278;25268;-55
2023/02/22 06:19:24;;;;;;;;;;;;;;;3.09;82.80;100406.67;106388;1265;22522;-58
2023/02/22 06:21:55;;;;;;;;;;;;;;;3.06;82.94;100406.42;106262;1278;22508;-57
2023/02/22 06:24:25;;;;;;;;;;;;;;;3.05;83.20;100408.74;106209;1271;22513;-58
2023/02/22 06:26:56;;;;;;;;;;;;;;;3.04;83.45;100409.78;106320;1274;25411;-54
2023/02/22 06:29:26;;;;;;;;;;;;;;;3.05;83.50;100409.59;106537;1274;24242;-59
2023/02/22 06:31:56;;;;;;;;;;;;;;;3.07;83.67;100412.72;106455;1274;22526;-56
2023/02/22 06:34:25;;;;;;;;;;;;;;;3.07;83.76;100420.59;106511;1278;24250;-56
2023/02/22 06:36:54;;;;;;;;;;;;;;;3.08;83.85;100416.70;106453;1278;24402;-57
2023/02/22 06:39:24;;;;;;;;;;;;;;;3.10;83.90;100415.95;106225;1271;22474;-56
2023/02/22 06:41:55;;;;;;;;;;;;;;;3.12;83.99;100416.15;106416;1265;24373;-58
2023/02/22 06:44:24;;;;;;;;;;;;;;;3.15;84.14;100422.49;106303;1274;24066;-54
2023/02/22 06:46:53;;;;;;;;;;;;;;;3.15;84.54;100428.70;106480;1265;22991;-56
2023/02/22 06:49:22;;;;;;;;;;;;;;;3.17;84.55;100429.85;106372;1278;22746;-61
2023/02/22 06:51:52;;;;;;;;;;;;;;;3.20;84.88;100433.42;106374;1278;24276;-54
2023/02/22 06:54:21;;;;;;;;;;;;;;;3.22;85.27;100438.52;106416;1278;22663;-57
2023/02/22 06:56:50;;;;;;;;;;;;;;;3.22;85.52;100443.08;106334;1275;26377;-54
2023/02/22 06:59:20;;;;;;;;;;;;;;;3.24;85.73;100437.20;106190;1274;24354;-56
2023/02/22 07:01:49;;;;;;;;;;;;;;;3.27;86.14;100442.41;106479;1262;22582;-56
2023/02/22 07:04:18;;;;;;;;;;;;;;;3.32;86.27;100447.52;106246;1278;22508;-55
2023/02/22 07:06:48;;;;;;;;;;;;;;;3.36;86.58;100446.27;106483;1278;22514;-58
2023/02/22 07:09:18;;;;;;;;;;;;;;;3.41;86.80;100451.13;106356;1275;24248;-57
2023/02/22 07:11:47;;;;;;;;;;;;;;;3.47;87.05;100453.45;106283;1265;22530;-55
2023/02/22 07:14:17;;;;;;;;;;;;;;;3.53;87.25;100455.05;106358;1274;22514;-59
2023/02/22 07:16:47;;;;;;;;;;;;;;;3.60;87.41;100458.39;106329;1274;22524;-57
2023/02/22 07:19:16;;;;;;;;;;;;;;;3.65;87.54;100457.88;106248;1271;23323;-57
2023/02/22 07:21:46;;;;;;;;;;;;;;;3.71;87.67;100460.36;106378;1278;24258;-58
2023/02/22 07:24:16;;;;;;;;;;;;;;;3.77;87.73;100458.09;106280;1278;22526;-56
2023/02/22 07:26:45;;;;;;;;;;;;;;;3.83;87.84;100452.20;106359;1260;22518;-54
2023/02/22 07:29:15;;;;;;;;;;;;;;;3.89;88.16;100457.04;106488;1275;24272;-56
2023/02/22 07:31:45;;;;;;;;;;;;;;;3.95;88.04;100458.40;106480;1265;22559;-54
2023/02/22 07:34:15;;;;;;;;;;;;;;;4.02;88.18;100460.36;106438;1264;25504;-54
2023/02/22 07:36:44;;;;;;;;;;;;;;;4.09;88.38;100458.78;106353;1275;24268;-55
2023/02/22 07:39:14;;;;;;;;;;;;;;;4.17;88.42;100460.42;106438;1278;24466;-56
2023/02/22 07:41:43;;;;;;;;;;;;;;;4.24;88.38;100464.60;106516;1274;22562;-56
2023/02/22 07:44:12;;;;;;;;;;;;;;;4.31;88.48;100468.14;106415;1274;22528;-56
2023/02/22 07:46:42;;;;;;;;;;;;;;;4.37;88.56;100466.81;106400;1278;22575;-55
2023/02/22 07:49:11;;;;;;;;;;;;;;;4.42;88.78;100469.53;106270;1271;24275;-55
2023/02/22 07:51:41;;;;;;;;;;;;;;;4.47;88.67;100468.06;106315;1278;24386;-57
2023/02/22 07:54:10;;;;;;;;;;;;;;;4.52;88.69;100470.23;106209;1278;22505;-58
2023/02/22 07:56:43;;;;;;;;;;;;;;;4.56;88.76;100466.02;106230;1275;23019;-59
2023/02/22 07:59:13;;;;;;;;;;;;;;;4.62;88.87;100465.57;106232;1271;26653;-58
2023/02/22 08:01:42;;;;;;;;;;;;;;;4.68;88.81;100468.27;106244;1278;22720;-58
2023/02/22 08:04:11;;;;;;;;;;;;;;;4.74;88.93;100473.39;106309;1278;22564;-57
2023/02/22 08:06:40;;;;;;;;;;;;;;;4.80;88.89;100468.59;106404;1271;24217;-58
2023/02/22 08:09:10;;;;;;;;;;;;;;;4.85;88.84;100470.02;106342;1265;22513;-55
2023/02/22 08:11:39;;;;;;;;;;;;;;;4.92;88.91;100466.14;106404;1266;25496;-59
2023/02/22 08:14:08;;;;;;;;;;;;;;;4.99;89.03;100471.73;106418;1273;24269;-55
2023/02/22 08:16:37;;;;;;;;;;;;;;;5.06;89.06;100471.08;106240;1275;22518;-57
2023/02/22 08:19:07;;;;;;;;;;;;;;;5.12;88.94;100475.80;106342;1265;22509;-57
2023/02/22 08:21:36;;;;;;;;;;;;;;;5.19;88.75;100476.33;106390;1274;22522;-56
2023/02/22 08:24:06;;;;;;;;;;;;;;;5.26;88.73;100471.15;106258;1277;22513;-56
2023/02/22 08:26:35;;;;;;;;;;;;;;;5.31;88.58;100475.60;106376;1273;22507;-55
2023/02/22 08:29:05;;;;;;;;;;;;;;;5.38;88.83;100473.27;106238;1278;22514;-55
2023/02/22 08:31:34;;;;;;;;;;;;;;;5.46;88.91;100474.95;106493;1278;25356;-55
2023/02/22 08:34:04;;;;;;;;;;;;;;;5.50;88.58;100473.38;106424;1278;22720;-58
2023/02/22 08:36:33;;;;;;;;;;;;;;;5.55;88.40;100474.45;106610;1278;22890;-60
2023/02/22 08:39:02;;;;;;;;;;;;;;;5.60;88.20;100471.04;106343;1278;25567;-56
2023/02/22 08:41:31;;;;;;;;;;;;;;;5.66;88.34;100472.55;106246;1278;22511;-58
2023/02/22 08:44:01;;;;;;;;;;;;;;;5.71;87.95;100472.61;106269;1264;22514;-55
2023/02/22 08:46:30;;;;;;;;;;;;;;;5.76;87.71;100469.79;106548;1265;22510;-55
2023/02/22 08:48:59;;;;;;;;;;;;;;;5.82;87.61;100464.16;106241;1278;22515;-56
2023/02/22 08:51:29;;;;;;;;;;;;;;;5.86;87.41;100462.23;106221;1273;25435;-54
2023/02/22 08:53:58;;;;;;;;;;;;;;;5.91;87.22;100463.35;106188;1273;173871;-57
2023/02/22 08:56:28;;;;;;;;;;;;;;;5.99;87.12;100460.28;106210;1278;22499;-57
2023/02/22 08:58:58;;;;;;;;;;;;;;;6.06;87.02;100456.95;106294;1274;22517;-55
2023/02/22 09:01:28;;;;;;;;;;;;;;;6.12;86.52;100458.66;106374;1278;22750;-57
2023/02/22 09:03:57;;;;;;;;;;;;;;;6.17;85.68;100458.29;106440;1278;22502;-55
2023/02/22 09:06:26;;;;;;;;;;;;;;;6.18;85.15;100459.81;106241;1278;23853;-57
2023/02/22 09:08:55;;;;;;;;;;;;;;;6.23;85.02;100459.42;106266;1278;22939;-57
2023/02/22 09:11:25;;;;;;;;;;;;;;;6.30;85.11;100460.72;106273;1278;25400;-55
2023/02/22 09:13:58;;;;;;;;;;;;;;;6.34;84.59;100455.60;106285;1275;24255;-57
2023/02/22 09:16:28;;;;;;;;;;;;;;;6.35;84.51;100458.48;106333;1274;25289;-56
2023/02/22 09:18:57;;;;;;;;;;;;;;;6.39;84.56;100454.33;106316;1278;22514;-57
2023/02/22 09:21:28;;;;;;;;;;;;;;;6.43;84.68;100449.03;106312;1273;22514;-58
2023/02/22 09:24:07;;;;;;;;;;;;;;;6.47;84.55;100450.33;106275;1276;22540;-59
2023/02/22 09:26:38;;;;;;;;;;;;;;;6.51;84.41;100449.88;106246;1275;23509;-57
2023/02/22 09:29:09;;;;;;;;;;;;;;;6.54;84.01;100449.55;106306;1278;22563;-54
2023/02/22 09:31:41;;;;;;;;;;;;;;;6.56;83.86;100449.16;106276;1271;22507;-56
2023/02/22 09:34:12;;;;;;;;;;;;;;;6.59;83.82;100451.53;106236;1265;22511;-56
2023/02/22 09:36:42;;;;;;;;;;;;;;;6.61;83.50;100454.56;106341;1278;23334;-54
2023/02/22 09:39:14;;;;;;;;;;;;;;;6.62;82.78;100454.77;106206;1271;22980;-57
2023/02/22 09:41:48;;;;;;;;;;;;;;;6.63;82.95;100454.89;106411;1278;25405;-58
2023/02/22 09:44:20;;;;;;;;;;;;;;;6.67;83.08;100455.77;106465;1272;23112;-55
2023/02/22 09:46:49;;;;;;;;;;;;;;;6.71;82.48;100453.73;106368;1278;25492;-57
2023/02/22 09:49:21;;;;;;;;;;;;;;;6.73;82.35;100455.50;106446;1272;25432;-56
2023/02/22 09:51:52;;;;;;;;;;;;;;;6.77;82.52;100456.63;106390;1278;22532;-55
2023/02/22 09:54:28;;;;;;;;;;;;;;;6.81;82.51;100456.58;106287;1278;25465;-60
2023/02/22 09:57:00;;;;;;;;;;;;;;;6.85;82.49;100450.55;106281;1276;25214;-58
2023/02/22 09:59:31;;;;;;;;;;;;;;;6.91;82.29;100456.20;106248;1278;24270;-57
2023/02/22 10:02:05;;;;;;;;;;;;;;;6.98;82.38;100461.05;106300;1273;22512;-58
2023/02/22 10:04:47;;;;;;;;;;;;;;;7.07;82.59;100458.27;106322;1278;22562;-58
2023/02/22 10:07:20;;;;;;;;;;;;;;;7.16;82.23;100456.20;106319;1272;26264;-56
2023/02/22 10:09:50;;;;;;;;;;;;;;;7.20;81.78;100454.00;106589;1278;22518;-55
2023/02/22 10:12:25;;;;;;;;;;;;;;;7.26;81.90;100452.98;106381;1278;23146;-56
2023/02/22 10:15:23;;;;;;;;;;;;;;;7.32;81.67;100454.33;106400;1278;22518;-59
2023/02/22 10:17:58;;;;;;;;;;;;;;;7.40;81.48;100455.04;106234;1274;22640;-57
2023/02/22 10:20:39;;;;;;;;;;;;;;;7.44;81.35;100448.77;106372;1278;22514;-55
2023/02/22 10:23:16;;;;;;;;;;;;;;;7.49;81.18;100450.19;106351;1273;22514;-57
2023/02/22 10:25:50;;;;;;;;;;;;;;;7.57;81.18;100449.65;106432;1278;23238;-54
2023/02/22 10:28:21;;;;;;;;;;;;;;;7.66;80.96;100446.38;106530;1278;22595;-58
2023/02/22 10:30:54;;;;;;;;;;;;;;;7.73;80.21;100449.84;106618;1278;25277;-55
2023/02/22 10:33:25;;;;;;;;;;;;;;;7.76;79.46;100449.23;106680;1277;22515;-55
2023/02/22 10:35:55;;;;;;;;;;;;;;;7.80;79.08;100446.79;106647;1268;24234;-58
2023/02/22 10:38:26;;;;;;;;;;;;;;;7.84;78.51;100443.52;106786;1271;22635;-57
2023/02/22 10:40:57;;;;;;;;;;;;;;;7.87;77.53;100442.63;106867;1275;22637;-58
2023/02/22 10:43:26;;;;;;;;;;;;;;;7.88;77.07;100448.75;106690;1277;25278;-58
2023/02/22 10:45:59;;;;;;;;;;;;;;;7.90;76.56;100448.95;106723;1273;23013;-57
2023/02/22 10:48:31;;;;;;;;;;;;;;;7.93;76.99;100444.14;106821;1274;24244;-58
2023/02/22 10:51:02;;;;;;;;;;;;;;;7.95;76.90;100447.06;106702;1278;24197;-57
2023/02/22 10:53:32;;;;;;;;;;;;;;;7.97;75.93;100446.73;106707;1264;22514;-57
2023/02/22 10:56:12;;;;;;;;;;;;;;;7.98;75.60;100442.35;106644;1274;24201;-59
2023/02/22 10:58:43;;;;;;;;;;;;;;;7.99;75.45;100437.52;106636;1274;22669;-57
2023/02/22 11:01:20;;;;;;;;;;;;;;;8.01;74.83;100437.54;106725;1272;22567;-58
2023/02/22 11:03:58;;;;;;;;;;;;;;;8.02;74.20;100433.46;106652;1278;22532;-57
2023/02/22 11:06:27;;;;;;;;;;;;;;;8.01;73.58;100431.82;106947;1274;22521;-57
2023/02/22 11:09:09;;;;;;;;;;;;;;;8.01;73.46;100430.25;106593;1278;24305;-58
2023/02/22 11:11:40;;;;;;;;;;;;;;;7.99;72.98;100429.10;106592;1274;22640;-60
2023/02/22 11:14:10;;;;;;;;;;;;;;;7.99;72.62;100427.46;106659;1272;22510;-56
2023/02/22 11:16:41;;;;;;;;;;;;;;;8.02;72.76;100424.87;106569;1278;25256;-58
2023/02/22 11:19:19;;;;;;;;;;;;;;;8.07;72.72;100424.80;106739;1278;25480;-59
2023/02/22 11:21:53;;;;;;;;;;;;;;;8.11;72.35;100424.83;106723;1278;22604;-59
2023/02/22 11:24:23;;;;;;;;;;;;;;;8.14;72.28;100425.42;106557;1275;22509;-57
2023/02/22 11:26:55;;;;;;;;;;;;;;;8.18;72.44;100421.05;106663;1278;25328;-58
2023/02/22 11:29:26;;;;;;;;;;;;;;;8.22;71.97;100422.50;106695;1275;22589;-58
2023/02/22 11:31:55;;;;;;;;;;;;;;;8.23;72.16;100420.44;106658;1271;24229;-58
2023/02/22 11:34:33;;;;;;;;;;;;;;;8.27;71.49;100423.92;106685;1270;24220;-58
2023/02/22 11:37:28;;;;;;;;;;;;;;;8.26;70.61;100422.89;106649;1278;25512;-56
2023/02/22 11:40:10;;;;;;;;;;;;;;;8.22;70.82;100418.73;106847;1278;24184;-59
2023/02/22 11:42:40;;;;;;;;;;;;;;;8.22;71.00;100416.51;106681;1278;22531;-56
2023/02/22 11:45:11;;;;;;;;;;;;;;;8.24;70.98;100417.17;106606;1278;24213;-59
2023/02/22 11:47:51;;;;;;;;;;;;;;;8.28;71.33;100417.48;106751;1278;22617;-58
2023/02/22 11:50:27;;;;;;;;;;;;;;;8.34;70.99;100418.04;106661;1278;22522;-58
2023/02/22 11:53:14;;;;;;;;;;;;;;;8.39;70.71;100410.39;106695;1278;25236;-57
2023/02/22 11:55:51;;;;;;;;;;;;;;;8.42;70.38;100408.56;106553;1278;26013;-58
2023/02/22 11:58:26;;;;;;;;;;;;;;;8.43;69.78;100410.02;106957;1277;22596;-57
2023/02/22 12:00:58;;;;;;;;;;;;;;;8.47;70.39;100409.96;106677;1278;22512;-58
2023/02/22 12:03:42;;;;;;;;;;;;;;;8.49;70.10;100411.95;106616;1276;23158;-59
2023/02/22 12:06:18;;;;;;;;;;;;;;;8.55;70.25;100412.33;106610;1276;24308;-58
2023/02/22 12:08:55;;;;;;;;;;;;;;;8.59;69.92;100409.67;106595;1276;24193;-57
2023/02/22 12:11:28;;;;;;;;;;;;;;;8.62;68.93;100413.31;106770;1275;22571;-55
2023/02/22 12:14:06;;;;;;;;;;;;;;;8.63;69.71;100410.16;106736;1276;22714;-57
2023/02/22 12:16:43;;;;;;;;;;;;;;;8.69;69.69;100410.14;106655;1278;24152;-54
2023/02/22 12:19:19;;;;;;;;;;;;;;;8.74;69.43;100409.02;106685;1273;25502;-57
2023/02/22 12:21:53;;;;;;;;;;;;;;;8.74;68.59;100409.42;106814;1278;22518;-55
2023/02/22 12:24:23;;;;;;;;;;;;;;;8.75;68.39;100410.05;106738;1264;22526;-60
2023/02/22 12:26:55;;;;;;;;;;;;;;;8.76;68.65;100410.54;106712;1274;25924;-58
2023/02/22 12:29:28;;;;;;;;;;;;;;;8.79;68.58;100409.30;106779;1271;24044;-59
2023/02/22 12:32:02;;;;;;;;;;;;;;;8.81;67.80;100405.27;106744;1278;22523;-58
2023/02/22 12:34:35;;;;;;;;;;;;;;;8.78;67.84;100404.64;106698;1274;26485;-59
2023/02/22 12:37:11;;;;;;;;;;;;;;;8.79;67.49;100401.71;106759;1270;22518;-59
2023/02/22 12:39:49;;;;;;;;;;;;;;;8.78;67.30;100409.67;106669;1276;22536;-58
2023/02/22 12:42:23;;;;;;;;;;;;;;;8.76;67.39;100404.02;106654;1278;24272;-60
2023/02/22 12:44:57;;;;;;;;;;;;;;;8.78;67.53;100405.56;107194;1274;23027;-57
2023/02/22 12:47:32;;;;;;;;;;;;;;;8.80;67.33;100408.63;106813;1264;22520;-59
2023/02/22 12:50:06;;;;;;;;;;;;;;;8.85;67.96;100405.08;106825;1278;24249;-57
2023/02/22 12:52:40;;;;;;;;;;;;;;;8.91;67.78;100400.84;106771;1264;22666;-56
2023/02/22 12:55:14;;;;;;;;;;;;;;;8.92;67.28;100398.33;106687;1273;22503;-59
2023/02/22 12:57:47;;;;;;;;;;;;;;;8.94;67.11;100398.55;106781;1278;22482;-58